createdAt,value
2019-03-23T00:01:42.547Z,3.80
2019-03-23T00:04:09.849Z,3.70
2019-03-23T00:06:37.012Z,3.90
2019-03-23T00:09:04.466Z,3.90
2019-03-23T00:11:31.796Z,3.90
2019-03-23T00:13:58.838Z,3.90
2019-03-23T00:16:25.895Z,3.80
2019-03-23T00:18:52.928Z,3.80
2019-03-23T00:21:19.966Z,3.80
2019-03-23T00:23:57.165Z,3.80
2019-03-23T00:26:24.195Z,3.90
2019-03-23T00:28:51.277Z,3.80
2019-03-23T00:31:19.392Z,3.80
2019-03-23T00:33:46.614Z,3.70
2019-03-23T00:36:13.677Z,3.70
2019-03-23T00:38:40.896Z,3.60
2019-03-23T00:41:07.869Z,3.60
2019-03-23T00:43:34.941Z,3.50
2019-03-23T00:46:01.945Z,3.50
2019-03-23T00:48:29.091Z,3.40
2019-03-23T00:50:56.148Z,3.50
2019-03-23T00:53:23.308Z,3.50
2019-03-23T00:55:50.238Z,3.60
2019-03-23T00:58:17.283Z,3.60
2019-03-23T01:00:44.292Z,3.60
2019-03-23T01:03:11.326Z,3.60
2019-03-23T01:05:38.365Z,3.60
2019-03-23T01:08:05.530Z,3.60
2019-03-23T01:10:32.558Z,3.60
2019-03-23T01:12:59.707Z,3.60
2019-03-23T01:15:26.721Z,3.60
2019-03-23T01:17:53.749Z,3.50
2019-03-23T01:20:20.795Z,3.50
2019-03-23T01:22:50.154Z,3.50
2019-03-23T01:25:17.189Z,3.40
2019-03-23T01:27:44.263Z,3.30
2019-03-23T01:30:19.570Z,3.30
2019-03-23T01:32:46.818Z,3.30
2019-03-23T01:35:14.021Z,3.30
2019-03-23T01:37:41.229Z,3.30
2019-03-23T01:40:08.902Z,3.20
2019-03-23T01:42:37.114Z,3.10
2019-03-23T01:45:07.472Z,3.00
2019-03-23T01:47:34.601Z,2.90
2019-03-23T01:50:05.308Z,2.90
2019-03-23T01:52:32.517Z,2.90
2019-03-23T01:55:01.455Z,2.80
2019-03-23T01:57:29.563Z,3.10
2019-03-23T01:59:56.707Z,2.80
2019-03-23T02:02:23.963Z,2.80
2019-03-23T02:04:51.252Z,2.70
2019-03-23T02:07:18.396Z,2.70
2019-03-23T02:09:45.802Z,2.60
2019-03-23T02:12:12.853Z,2.60
2019-03-23T02:14:40.369Z,2.70
2019-03-23T02:17:08.571Z,2.70
2019-03-23T02:19:36.018Z,4.60
2019-03-23T02:22:03.041Z,2.60
2019-03-23T02:24:30.208Z,2.60
2019-03-23T02:26:57.286Z,2.60
2019-03-23T02:29:24.472Z,2.70
2019-03-23T02:31:51.681Z,2.70
2019-03-23T02:34:18.839Z,2.70
2019-03-23T02:36:45.873Z,2.60
2019-03-23T02:39:13.023Z,2.60
2019-03-23T02:41:39.992Z,2.60
2019-03-23T02:44:07.138Z,2.60
2019-03-23T02:46:34.243Z,2.60
2019-03-23T02:49:01.251Z,2.60
2019-03-23T02:51:28.318Z,2.50
2019-03-23T02:53:55.357Z,2.50
2019-03-23T02:56:22.444Z,2.50
2019-03-23T02:58:49.626Z,2.50
2019-03-23T03:01:16.682Z,2.40
2019-03-23T03:03:43.818Z,2.40
2019-03-23T03:06:10.885Z,2.30
2019-03-23T03:08:37.873Z,2.30
2019-03-23T03:11:04.888Z,2.20
2019-03-23T03:13:31.900Z,2.10
2019-03-23T03:15:59.113Z,2.10
2019-03-23T03:18:26.117Z,2.20
2019-03-23T03:20:53.181Z,2.20
2019-03-23T03:23:20.163Z,2.20
2019-03-23T03:25:52.646Z,2.20
2019-03-23T03:28:19.649Z,2.10
2019-03-23T03:30:46.825Z,2.10
2019-03-23T03:33:13.825Z,2.20
2019-03-23T03:35:41.031Z,2.20
2019-03-23T03:38:08.048Z,2.20
2019-03-23T03:40:35.484Z,2.20
2019-03-23T03:43:02.485Z,2.10
2019-03-23T03:45:31.384Z,2.10
2019-03-23T03:47:58.441Z,2.00
2019-03-23T03:50:25.576Z,2.20
2019-03-23T03:52:52.713Z,2.30
2019-03-23T03:55:20.187Z,2.30
2019-03-23T03:57:48.057Z,2.20
2019-03-23T04:00:15.194Z,2.20
2019-03-23T04:02:42.396Z,2.10
2019-03-23T04:05:09.403Z,2.00
2019-03-23T04:07:36.488Z,2.00
2019-03-23T04:10:07.908Z,2.00
2019-03-23T04:12:35.052Z,2.20
2019-03-23T04:15:03.302Z,2.20
2019-03-23T04:17:30.405Z,2.30
2019-03-23T04:19:57.730Z,2.30
2019-03-23T04:22:25.401Z,2.30
2019-03-23T04:24:52.379Z,2.40
2019-03-23T04:27:19.453Z,2.40
2019-03-23T04:29:46.461Z,2.40
2019-03-23T04:32:16.069Z,2.30
2019-03-23T04:34:43.069Z,2.50
2019-03-23T04:37:10.135Z,2.40
2019-03-23T04:39:38.153Z,2.40
2019-03-23T04:42:07.517Z,2.20
2019-03-23T04:44:34.486Z,2.10
2019-03-23T04:47:01.536Z,2.20
2019-03-23T04:49:28.564Z,2.20
2019-03-23T04:51:55.625Z,2.20
2019-03-23T04:54:22.656Z,2.30
2019-03-23T04:56:49.798Z,2.30
2019-03-23T04:59:16.849Z,2.30
2019-03-23T05:01:43.945Z,2.40
2019-03-23T05:04:10.963Z,2.40
2019-03-23T05:06:38.005Z,2.40
2019-03-23T05:09:07.118Z,2.30
2019-03-23T05:11:34.267Z,2.40
2019-03-23T05:14:02.381Z,2.30
2019-03-23T05:16:29.500Z,2.30
2019-03-23T05:18:56.642Z,2.40
2019-03-23T05:21:23.855Z,2.50
2019-03-23T05:23:50.948Z,2.50
2019-03-23T05:26:33.830Z,2.50
2019-03-23T05:29:00.972Z,2.20
2019-03-23T05:31:28.093Z,2.40
2019-03-23T05:33:55.145Z,2.40
2019-03-23T05:36:22.290Z,2.30
2019-03-23T05:38:49.524Z,2.30
2019-03-23T05:41:16.692Z,2.30
2019-03-23T05:43:43.834Z,2.30
2019-03-23T05:46:11.029Z,2.40
2019-03-23T05:48:39.061Z,2.40
2019-03-23T05:51:06.298Z,2.40
2019-03-23T05:53:33.809Z,2.50
2019-03-23T05:56:00.870Z,2.50
2019-03-23T05:58:28.083Z,2.50
2019-03-23T06:00:55.290Z,2.50
2019-03-23T06:03:22.327Z,2.40
2019-03-23T06:05:49.354Z,2.40
2019-03-23T06:08:16.517Z,2.40
2019-03-23T06:10:43.525Z,2.30
2019-03-23T06:13:10.623Z,2.20
2019-03-23T06:15:37.656Z,2.20
2019-03-23T06:18:04.791Z,2.20
2019-03-23T06:20:31.835Z,2.20
2019-03-23T06:22:58.881Z,2.10
2019-03-23T06:25:25.875Z,2.10
2019-03-23T06:27:52.941Z,2.10
2019-03-23T06:30:20.001Z,2.20
2019-03-23T06:32:47.034Z,2.50
2019-03-23T06:35:14.078Z,2.90
2019-03-23T06:37:41.071Z,3.10
2019-03-23T06:40:09.512Z,3.40
2019-03-23T06:42:36.476Z,3.60
2019-03-23T06:45:06.382Z,3.70
2019-03-23T06:47:33.435Z,4.00
2019-03-23T06:50:02.265Z,4.20
2019-03-23T06:52:29.220Z,4.20
2019-03-23T06:54:56.294Z,4.50
2019-03-23T06:57:23.277Z,4.80
2019-03-23T06:59:50.235Z,5.20
2019-03-23T07:02:17.254Z,5.50
2019-03-23T07:04:44.297Z,5.60
2019-03-23T07:07:11.262Z,5.90
2019-03-23T07:09:38.669Z,5.90
2019-03-23T07:12:05.651Z,5.80
2019-03-23T07:14:32.737Z,5.60
2019-03-23T07:17:00.015Z,5.40
2019-03-23T07:19:27.181Z,5.60
2019-03-23T07:21:54.181Z,5.70
2019-03-23T07:24:21.196Z,5.90
2019-03-23T07:26:48.171Z,6.20
2019-03-23T07:29:15.203Z,6.40
2019-03-23T07:31:42.265Z,6.40
2019-03-23T07:34:09.294Z,6.00
2019-03-23T07:36:36.354Z,5.60
2019-03-23T07:39:05.581Z,5.30
2019-03-23T07:41:32.649Z,5.30
2019-03-23T07:44:01.594Z,5.80
2019-03-23T07:46:28.653Z,6.40
2019-03-23T07:48:55.714Z,6.90
2019-03-23T07:51:22.829Z,7.70
2019-03-23T07:53:49.897Z,7.90
2019-03-23T07:56:17.289Z,8.10
2019-03-23T07:58:45.201Z,8.00
2019-03-23T08:01:12.850Z,8.20
2019-03-23T08:03:42.412Z,8.10
2019-03-23T08:06:09.572Z,8.40
2019-03-23T08:08:36.724Z,8.60
2019-03-23T08:11:04.782Z,8.90
2019-03-23T08:13:31.925Z,9.00
2019-03-23T08:15:58.955Z,8.90
2019-03-23T08:18:25.990Z,9.00
2019-03-23T08:20:53.029Z,9.10
2019-03-23T08:23:20.060Z,9.40
2019-03-23T08:25:47.297Z,9.70
2019-03-23T08:28:14.261Z,9.90
2019-03-23T08:30:41.369Z,9.80
2019-03-23T08:33:08.408Z,10.00
2019-03-23T08:35:35.539Z,10.20
2019-03-23T08:38:02.546Z,10.10
2019-03-23T08:40:29.802Z,10.20
2019-03-23T08:42:56.946Z,10.60
2019-03-23T08:45:23.989Z,10.50
2019-03-23T08:47:51.008Z,10.20
2019-03-23T08:50:18.153Z,10.50
2019-03-23T08:52:45.173Z,11.10
2019-03-23T08:55:12.323Z,11.30
2019-03-23T08:57:41.315Z,11.60
2019-03-23T09:00:08.335Z,11.60
2019-03-23T09:02:35.469Z,11.40
2019-03-23T09:05:04.029Z,11.50
2019-03-23T09:07:31.040Z,12.10
2019-03-23T09:09:59.405Z,11.70
2019-03-23T09:12:26.653Z,10.80
2019-03-23T09:14:53.758Z,10.70
2019-03-23T09:17:20.787Z,10.90
2019-03-23T09:19:47.948Z,11.10
2019-03-23T09:22:14.981Z,10.60
2019-03-23T09:24:42.039Z,10.80
2019-03-23T09:27:09.198Z,10.90
2019-03-23T09:29:36.249Z,11.20
2019-03-23T09:32:04.374Z,11.70
2019-03-23T09:34:31.419Z,11.60
2019-03-23T09:36:58.553Z,11.60
2019-03-23T09:39:25.643Z,11.90
2019-03-23T09:41:52.808Z,12.40
2019-03-23T09:44:19.890Z,12.40
2019-03-23T09:46:46.962Z,12.30
2019-03-23T09:49:14.005Z,12.50
2019-03-23T09:51:40.984Z,12.50
2019-03-23T09:54:08.007Z,11.90
2019-03-23T09:56:36.164Z,11.90
2019-03-23T09:59:03.370Z,12.20
2019-03-23T10:01:33.881Z,12.40
2019-03-23T10:04:01.150Z,12.20
2019-03-23T10:06:28.371Z,12.10
2019-03-23T10:08:55.477Z,12.00
2019-03-23T10:11:36.909Z,11.90
2019-03-23T10:14:03.947Z,12.00
2019-03-23T10:16:31.905Z,12.00
2019-03-23T10:19:03.598Z,12.20
2019-03-23T10:21:30.621Z,11.70
2019-03-23T10:23:57.712Z,11.30
2019-03-23T10:26:24.764Z,11.70
2019-03-23T10:28:51.842Z,11.90
2019-03-23T10:31:18.925Z,12.30
2019-03-23T10:33:45.966Z,11.90
2019-03-23T10:36:13.181Z,11.70
2019-03-23T10:38:40.605Z,11.70
2019-03-23T10:41:09.384Z,11.40
2019-03-23T10:43:36.436Z,11.30
2019-03-23T10:46:03.628Z,11.10
2019-03-23T10:48:36.938Z,11.10
2019-03-23T10:51:04.517Z,11.10
2019-03-23T10:53:31.520Z,11.10
2019-03-23T10:55:58.599Z,11.50
2019-03-23T10:58:25.831Z,12.10
2019-03-23T11:00:52.911Z,12.20
2019-03-23T11:03:19.930Z,11.90
2019-03-23T11:05:47.865Z,11.70
2019-03-23T11:08:19.401Z,11.30
2019-03-23T11:10:47.338Z,11.10
2019-03-23T11:13:14.339Z,11.10
2019-03-23T11:15:41.412Z,11.10
2019-03-23T11:18:08.369Z,11.10
2019-03-23T11:20:35.390Z,11.10
2019-03-23T11:23:02.399Z,11.10
2019-03-23T11:25:31.012Z,10.90
2019-03-23T11:27:59.061Z,10.90
2019-03-23T11:30:26.059Z,10.60
2019-03-23T11:32:53.032Z,10.10
2019-03-23T11:35:20.143Z,9.80
2019-03-23T11:37:47.382Z,9.70
2019-03-23T11:40:14.621Z,9.70
2019-03-23T11:42:49.916Z,9.70
2019-03-23T11:45:10.653Z,9.90
2019-03-23T11:47:37.669Z,10.50
2019-03-23T11:50:05.925Z,10.90
2019-03-23T11:52:33.102Z,11.50
2019-03-23T11:55:00.195Z,11.80
2019-03-23T11:57:27.270Z,11.80
2019-03-23T11:59:54.275Z,11.80
2019-03-23T12:02:21.438Z,13.40
2019-03-23T12:04:48.480Z,12.00
2019-03-23T12:07:16.966Z,11.80
2019-03-23T12:09:44.070Z,12.10
2019-03-23T12:12:11.556Z,12.00
2019-03-23T12:14:39.047Z,11.80
2019-03-23T12:17:06.145Z,11.70
2019-03-23T12:19:33.256Z,11.80
2019-03-23T12:22:00.259Z,12.00
2019-03-23T12:24:27.256Z,12.30
2019-03-23T12:26:54.268Z,12.40
2019-03-23T12:29:21.302Z,12.30
2019-03-23T12:31:48.381Z,12.30
2019-03-23T12:34:15.569Z,12.10
2019-03-23T12:36:42.608Z,12.20
2019-03-23T12:39:09.689Z,11.90
2019-03-23T12:41:36.717Z,11.80
2019-03-23T12:44:03.840Z,11.90
2019-03-23T12:46:30.834Z,12.10
2019-03-23T12:48:57.850Z,12.00
2019-03-23T12:51:24.842Z,11.90
2019-03-23T12:53:51.915Z,12.30
2019-03-23T12:56:18.911Z,12.50
2019-03-23T12:58:45.996Z,12.40
2019-03-23T13:01:15.397Z,12.40
2019-03-23T13:03:43.045Z,12.30
2019-03-23T13:06:10.820Z,12.00
2019-03-23T13:08:37.953Z,12.30
2019-03-23T13:11:05.049Z,12.20
2019-03-23T13:13:32.254Z,12.10
2019-03-23T13:15:59.217Z,12.20
2019-03-23T13:18:27.477Z,12.20
2019-03-23T13:20:54.633Z,12.50
2019-03-23T13:23:21.729Z,12.50
2019-03-23T13:25:49.549Z,12.40
2019-03-23T13:28:16.678Z,12.40
2019-03-23T13:30:43.716Z,12.20
2019-03-23T13:33:10.812Z,11.80
2019-03-23T13:35:37.873Z,11.50
2019-03-23T13:38:05.929Z,11.50
2019-03-23T13:40:32.920Z,11.30
2019-03-23T13:42:59.950Z,11.40
2019-03-23T13:45:26.948Z,11.30
2019-03-23T13:47:54.981Z,11.10
2019-03-23T13:50:26.930Z,11.00
2019-03-23T13:52:54.002Z,10.90
2019-03-23T13:55:26.843Z,11.10
2019-03-23T13:57:55.280Z,11.20
2019-03-23T14:00:22.287Z,11.10
2019-03-23T14:02:50.250Z,11.70
2019-03-23T14:05:17.297Z,11.00
2019-03-23T14:07:44.344Z,10.70
2019-03-23T14:10:11.577Z,10.70
2019-03-23T14:12:38.699Z,11.10
2019-03-23T14:15:06.094Z,10.10
2019-03-23T14:17:33.213Z,10.80
2019-03-23T14:20:00.324Z,11.10
2019-03-23T14:22:27.389Z,11.60
2019-03-23T14:24:54.413Z,11.50
2019-03-23T14:27:21.695Z,11.50
2019-03-23T14:29:48.734Z,11.20
2019-03-23T14:32:15.850Z,11.20
2019-03-23T14:34:43.879Z,11.00
2019-03-23T14:37:10.941Z,10.90
2019-03-23T14:39:37.961Z,10.80
2019-03-23T14:42:05.328Z,10.70
2019-03-23T14:44:32.517Z,10.40
2019-03-23T14:46:59.581Z,10.10
2019-03-23T14:49:26.615Z,10.10
2019-03-23T14:51:53.687Z,11.00
2019-03-23T14:54:20.762Z,9.90
2019-03-23T14:56:47.897Z,9.90
2019-03-23T14:59:15.157Z,9.80
2019-03-23T15:01:43.584Z,9.80
2019-03-23T15:04:10.629Z,9.80
2019-03-23T15:06:37.705Z,9.90
2019-03-23T15:09:05.652Z,10.10
2019-03-23T15:11:32.745Z,10.20
2019-03-23T15:13:59.889Z,10.70
2019-03-23T15:16:26.993Z,11.50
2019-03-23T15:18:54.041Z,11.80
2019-03-23T15:21:21.077Z,11.70
2019-03-23T15:23:48.050Z,11.60
2019-03-23T15:26:15.133Z,11.50
2019-03-23T15:28:42.581Z,11.40
2019-03-23T15:31:09.749Z,11.20
2019-03-23T15:33:36.791Z,11.40
2019-03-23T15:36:03.853Z,11.30
2019-03-23T15:38:30.857Z,11.20
2019-03-23T15:40:58.530Z,11.00
2019-03-23T15:43:25.579Z,10.80
2019-03-23T15:45:52.609Z,10.70
2019-03-23T15:48:19.822Z,10.70
2019-03-23T15:50:47.150Z,10.70
2019-03-23T15:53:14.175Z,10.70
2019-03-23T15:55:41.274Z,10.60
2019-03-23T15:58:08.430Z,10.50
2019-03-23T16:00:35.708Z,10.60
2019-03-23T16:03:03.281Z,10.50
2019-03-23T16:05:30.562Z,10.60
2019-03-23T16:07:57.640Z,10.70
2019-03-23T16:10:24.731Z,10.60
2019-03-23T16:12:51.842Z,10.30
2019-03-23T16:15:18.966Z,10.20
2019-03-23T16:17:46.238Z,10.10
2019-03-23T16:20:16.149Z,9.90
2019-03-23T16:22:43.174Z,9.90
2019-03-23T16:25:12.596Z,9.80
2019-03-23T16:27:39.639Z,9.70
2019-03-23T16:30:11.375Z,9.70
2019-03-23T16:32:38.594Z,9.90
2019-03-23T16:35:06.414Z,10.10
2019-03-23T16:37:33.512Z,10.20
2019-03-23T16:40:00.556Z,10.30
2019-03-23T16:42:27.545Z,10.20
2019-03-23T16:44:54.558Z,10.00
2019-03-23T16:47:21.595Z,9.90
2019-03-23T16:49:48.653Z,9.70
2019-03-23T16:52:15.798Z,9.60
2019-03-23T16:54:43.014Z,9.50
2019-03-23T16:57:10.148Z,9.40
2019-03-23T16:59:37.237Z,9.30
2019-03-23T17:02:04.319Z,9.30
2019-03-23T17:04:33.781Z,9.20
2019-03-23T17:07:00.837Z,9.20
2019-03-23T17:09:27.925Z,9.20
2019-03-23T17:11:54.985Z,9.10
2019-03-23T17:14:22.033Z,9.00
2019-03-23T17:16:49.057Z,9.00
2019-03-23T17:19:16.161Z,9.00
2019-03-23T17:21:43.174Z,8.90
2019-03-23T17:24:10.342Z,8.90
2019-03-23T17:26:37.417Z,8.90
2019-03-23T17:29:04.469Z,8.80
2019-03-23T17:31:31.519Z,8.80
2019-03-23T17:33:58.485Z,8.80
2019-03-23T17:36:25.500Z,8.70
2019-03-23T17:38:54.203Z,8.70
2019-03-23T17:41:21.247Z,8.50
2019-03-23T17:43:49.380Z,8.40
2019-03-23T17:46:16.494Z,8.30
2019-03-23T17:48:43.557Z,8.30
2019-03-23T17:51:11.446Z,8.10
2019-03-23T17:53:38.715Z,8.10
2019-03-23T17:56:06.889Z,8.00
2019-03-23T17:58:33.938Z,7.90
2019-03-23T18:01:00.990Z,7.80
2019-03-23T18:03:27.957Z,7.70
2019-03-23T18:05:55.360Z,7.60
2019-03-23T18:08:22.405Z,7.60
2019-03-23T18:10:49.494Z,7.40
2019-03-23T18:13:17.017Z,7.40
2019-03-23T18:15:44.301Z,7.30
2019-03-23T18:18:11.349Z,7.30
2019-03-23T18:20:38.439Z,7.20
2019-03-23T18:23:05.518Z,7.10
2019-03-23T18:25:32.536Z,7.10
2019-03-23T18:28:01.089Z,7.10
2019-03-23T18:30:37.032Z,7.20
2019-03-23T18:33:05.047Z,7.10
2019-03-23T18:35:32.378Z,7.00
2019-03-23T18:38:02.428Z,6.90
2019-03-23T18:40:32.626Z,6.80
2019-03-23T18:42:59.717Z,6.70
2019-03-23T18:45:27.092Z,6.60
2019-03-23T18:47:54.242Z,6.60
2019-03-23T18:50:21.249Z,6.40
2019-03-23T18:52:48.438Z,6.30
2019-03-23T18:55:15.485Z,6.20
2019-03-23T18:57:42.947Z,6.10
2019-03-23T19:00:10.969Z,6.00
2019-03-23T19:02:38.131Z,6.00
2019-03-23T19:05:05.281Z,6.00
2019-03-23T19:07:32.470Z,6.00
2019-03-23T19:09:59.666Z,6.10
2019-03-23T19:12:27.350Z,6.10
2019-03-23T19:14:54.902Z,6.20
2019-03-23T19:17:22.052Z,6.20
2019-03-23T19:19:49.190Z,6.10
2019-03-23T19:22:16.493Z,6.20
2019-03-23T19:24:45.917Z,6.10
2019-03-23T19:27:13.043Z,6.00
2019-03-23T19:29:41.197Z,6.00
2019-03-23T19:32:08.330Z,5.90
2019-03-23T19:34:35.305Z,5.70
2019-03-23T19:37:02.423Z,5.70
2019-03-23T19:39:29.461Z,5.60
2019-03-23T19:41:56.510Z,5.40
2019-03-23T19:44:24.605Z,5.40
2019-03-23T19:46:52.488Z,5.40
2019-03-23T19:49:19.502Z,5.30
2019-03-23T19:51:46.834Z,5.20
2019-03-23T19:54:13.849Z,5.20
2019-03-23T19:56:40.990Z,5.10
2019-03-23T19:59:08.031Z,5.00
2019-03-23T20:01:35.094Z,5.00
2019-03-23T20:04:02.191Z,5.00
2019-03-23T20:06:29.438Z,4.90
2019-03-23T20:08:56.565Z,4.50
2019-03-23T20:11:24.622Z,4.40
2019-03-23T20:13:58.779Z,4.20
2019-03-23T20:16:20.559Z,4.00
2019-03-23T20:18:48.650Z,3.90
2019-03-23T20:21:16.723Z,3.90
2019-03-23T20:23:43.997Z,3.90
2019-03-23T20:26:12.030Z,4.00
2019-03-23T20:28:39.232Z,4.00
2019-03-23T20:31:06.430Z,4.10
2019-03-23T20:33:33.515Z,4.20
2019-03-23T20:36:00.628Z,4.10
2019-03-23T20:38:27.782Z,4.10
2019-03-23T20:40:55.097Z,4.00
2019-03-23T20:43:22.226Z,3.90
2019-03-23T20:45:49.277Z,3.90
2019-03-23T20:48:16.705Z,3.80
2019-03-23T20:50:44.089Z,3.90
2019-03-23T20:53:14.601Z,3.80
2019-03-23T20:55:41.675Z,3.80
2019-03-23T20:58:08.747Z,3.90
2019-03-23T21:00:35.771Z,4.00
2019-03-23T21:03:02.820Z,4.00
2019-03-23T21:05:34.275Z,4.00
2019-03-23T21:07:58.725Z,4.00
2019-03-23T21:10:25.902Z,4.00
2019-03-23T21:12:52.882Z,3.90
2019-03-23T21:15:19.998Z,3.80
2019-03-23T21:17:51.361Z,3.90
2019-03-23T21:20:16.160Z,3.80
2019-03-23T21:22:43.332Z,3.70
2019-03-23T21:25:10.417Z,3.70
2019-03-23T21:27:37.489Z,3.60
2019-03-23T21:30:08.094Z,3.60
2019-03-23T21:32:35.208Z,3.40
2019-03-23T21:35:02.225Z,3.40
2019-03-23T21:37:29.273Z,3.40
2019-03-23T21:39:56.349Z,3.20
2019-03-23T21:42:23.444Z,3.20
2019-03-23T21:44:50.597Z,3.20
2019-03-23T21:47:17.593Z,3.10
2019-03-23T21:49:44.848Z,3.20
2019-03-23T21:52:11.818Z,3.10
2019-03-23T21:54:38.797Z,3.10
2019-03-23T21:57:08.086Z,3.20
2019-03-23T21:59:35.101Z,3.00
2019-03-23T22:02:04.473Z,3.00
2019-03-23T22:04:31.585Z,3.00
2019-03-23T22:06:58.625Z,2.90
2019-03-23T22:09:27.446Z,2.60
2019-03-23T22:11:54.594Z,2.40
2019-03-23T22:14:21.718Z,2.20
2019-03-23T22:16:50.615Z,2.10
2019-03-23T22:19:17.663Z,2.10
2019-03-23T22:21:44.674Z,2.00
2019-03-23T22:24:11.717Z,2.00
2019-03-23T22:26:38.735Z,2.00
2019-03-23T22:29:05.743Z,1.90
2019-03-23T22:31:32.738Z,1.90
2019-03-23T22:33:59.776Z,1.80
2019-03-23T22:36:27.074Z,1.80
2019-03-23T22:38:55.375Z,1.80
2019-03-23T22:41:23.417Z,1.70
2019-03-23T22:43:50.441Z,1.60
2019-03-23T22:46:17.403Z,1.60
2019-03-23T22:48:44.453Z,1.50
2019-03-23T22:51:11.487Z,1.50
2019-03-23T22:53:38.451Z,1.50
2019-03-23T22:56:05.575Z,1.50
2019-03-23T22:58:32.544Z,1.50
2019-03-23T23:00:59.896Z,1.40
2019-03-23T23:03:26.965Z,1.40
2019-03-23T23:05:53.978Z,1.40
2019-03-23T23:08:20.984Z,1.50
2019-03-23T23:10:48.123Z,1.60
2019-03-23T23:13:15.121Z,1.70
2019-03-23T23:15:42.181Z,1.70
2019-03-23T23:18:09.571Z,1.80
2019-03-23T23:20:36.587Z,2.10
2019-03-23T23:23:03.660Z,2.30
2019-03-23T23:25:31.443Z,2.50
2019-03-23T23:27:58.514Z,2.60
2019-03-23T23:30:25.533Z,2.70
2019-03-23T23:32:53.599Z,2.80
2019-03-23T23:35:20.681Z,2.90
2019-03-23T23:37:47.785Z,2.90
2019-03-23T23:40:14.781Z,3.00
2019-03-23T23:42:41.845Z,2.90
2019-03-23T23:45:15.475Z,3.00
2019-03-23T23:47:38.126Z,2.90
2019-03-23T23:50:05.810Z,2.90
2019-03-23T23:52:33.024Z,2.90
2019-03-23T23:55:01.098Z,2.80
2019-03-23T23:57:28.242Z,2.70
2019-03-23T23:59:55.209Z,2.70
